Time;durP1;ratioP1;P1;durP2;ratioP2;P2;SDS_P1;SDS_P2;PMS_P1;PMS_P2;Temp;Humidity;BMP_temperature;BMP_pressure;BME280_temperature;BME280_humidity;BME280_pressure;Samples;Min_cycle;Max_cycle;Signal;HPM_P1;HPM_P2
2023/05/17 00:00:32;;;;;;;5.40;1.80;;;8.60;96.70;;;;;;5010135;28;20139;-79
2023/05/17 00:02:57;;;;;;;6.57;1.77;;;8.50;96.00;;;;;;5008543;28;20040;-78
2023/05/17 00:05:23;;;;;;;7.95;1.70;;;8.50;97.50;;;;;;5010648;28;20041;-78
2023/05/17 00:07:49;;;;;;;5.72;2.20;;;8.40;97.20;;;;;;5012164;28;20112;-77
2023/05/17 00:10:14;;;;;;;4.38;1.95;;;8.40;97.90;;;;;;5025005;28;20075;-78
2023/05/17 00:12:40;;;;;;;8.35;2.00;;;8.10;99.90;;;;;;5026684;28;20494;-77
2023/05/17 00:15:06;;;;;;;4.10;2.28;;;8.20;99.30;;;;;;5026817;28;20045;-77
2023/05/17 00:17:31;;;;;;;5.25;2.28;;;8.10;99.90;;;;;;5026163;28;20040;-77
2023/05/17 00:19:57;;;;;;;8.27;2.20;;;8.10;99.90;;;;;;5010069;28;20032;-78
2023/05/17 00:22:22;;;;;;;8.77;2.60;;;7.90;99.90;;;;;;5010456;28;20025;-78
2023/05/17 00:24:49;;;;;;;4.78;1.27;;;;;;;;;;5026629;28;20143;-78
2023/05/17 00:27:14;;;;;;;8.13;2.30;;;8.10;99.90;;;;;;5042976;28;20583;-78
2023/05/17 00:29:40;;;;;;;4.25;2.72;;;8.10;99.90;;;;;;5010608;28;20112;-78
2023/05/17 00:32:06;;;;;;;7.13;2.33;;;8.00;99.90;;;;;;5024491;28;20481;-78
2023/05/17 00:34:31;;;;;;;4.85;2.53;;;7.90;99.90;;;;;;5009674;28;20099;-78
2023/05/17 00:36:57;;;;;;;9.60;2.88;;;7.90;99.90;;;;;;5009027;28;20885;-78
2023/05/17 00:39:22;;;;;;;7.70;2.95;;;7.80;99.90;;;;;;5023501;28;20045;-78
2023/05/17 00:41:48;;;;;;;7.05;3.05;;;7.70;99.90;;;;;;5008483;28;20091;-78
2023/05/17 00:44:14;;;;;;;7.43;3.20;;;7.70;99.90;;;;;;5008512;28;20029;-79
2023/05/17 00:46:39;;;;;;;7.40;2.60;;;7.60;99.90;;;;;;5041973;28;20033;-78
2023/05/17 00:49:05;;;;;;;8.23;3.22;;;7.60;99.90;;;;;;5026322;28;20064;-78
2023/05/17 00:51:30;;;;;;;5.50;2.10;;;7.70;99.90;;;;;;5026511;28;20740;-79
2023/05/17 00:53:56;;;;;;;12.00;3.08;;;7.70;99.90;;;;;;5041919;28;20037;-78
2023/05/17 00:56:22;;;;;;;6.80;2.75;;;7.60;99.90;;;;;;5024985;28;20037;-78
2023/05/17 00:58:48;;;;;;;14.90;3.58;;;7.60;99.90;;;;;;5010650;28;20040;-78
2023/05/17 01:01:14;;;;;;;16.83;3.47;;;7.60;99.90;;;;;;5021094;28;20489;-78
2023/05/17 01:03:39;;;;;;;7.75;3.08;;;7.50;99.90;;;;;;5025251;28;20037;-79
2023/05/17 01:06:05;;;;;;;10.32;4.40;;;7.40;99.90;;;;;;5039358;28;20044;-78
2023/05/17 01:08:30;;;;;;;7.60;3.70;;;7.60;99.90;;;;;;5025911;28;20443;-78
2023/05/17 01:11:04;;;;;;;12.50;3.80;;;7.50;99.90;;;;;;5040347;28;20766;-78
2023/05/17 01:13:33;;;;;;;10.20;3.60;;;7.50;99.90;;;;;;5024456;28;20044;-78
2023/05/17 01:16:08;;;;;;;10.20;3.00;;;7.50;99.90;;;;;;5008632;28;20087;-79
2023/05/17 01:19:16;;;;;;;11.45;3.53;;;7.50;99.90;;;;;;5007514;28;20033;-79
2023/05/17 01:21:55;;;;;;;10.18;3.92;;;7.70;99.90;;;;;;5001617;28;20501;-79
2023/05/17 01:24:29;;;;;;;10.32;2.95;;;7.50;99.90;;;;;;5025530;28;20041;-79
2023/05/17 01:26:55;;;;;;;13.85;4.13;;;7.50;99.90;;;;;;5005250;28;20041;-79
2023/05/17 01:29:24;;;;;;;12.60;3.70;;;7.60;99.90;;;;;;5025427;28;20044;-79
2023/05/17 01:31:50;;;;;;;5.18;2.85;;;7.60;99.90;;;;;;5036606;28;20033;-79
2023/05/17 01:34:23;;;;;;;5.43;2.97;;;7.60;99.90;;;;;;5023572;28;20150;-79
2023/05/17 01:36:49;;;;;;;17.00;3.67;;;7.40;99.90;;;;;;5025279;28;20037;-79
2023/05/17 01:39:15;;;;;;;4.18;2.40;;;7.50;99.90;;;;;;5022885;28;20667;-78
2023/05/17 01:41:43;;;;;;;12.05;3.28;;;7.60;99.90;;;;;;5025751;28;20033;-78
2023/05/17 01:44:38;;;;;;;5.95;2.90;;;7.50;99.90;;;;;;5023955;28;20049;-78
2023/05/17 01:47:18;;;;;;;9.85;3.08;;;7.60;99.90;;;;;;5015092;28;20030;-78
2023/05/17 01:49:46;;;;;;;6.57;3.13;;;7.50;99.90;;;;;;5024347;28;20043;-78
2023/05/17 01:52:15;;;;;;;4.00;2.42;;;7.60;99.90;;;;;;5002299;28;20037;-78
2023/05/17 01:55:12;;;;;;;7.72;3.00;;;7.50;99.90;;;;;;5025844;28;20037;-78
2023/05/17 01:57:37;;;;;;;9.27;2.75;;;7.50;99.90;;;;;;5016823;28;20029;-78
2023/05/17 02:00:08;;;;;;;8.30;3.20;;;7.40;99.90;;;;;;5039033;28;20404;-79
2023/05/17 02:02:33;;;;;;;4.47;2.50;;;7.40;99.90;;;;;;5042404;28;20029;-78
2023/05/17 02:04:59;;;;;;;7.95;2.10;;;7.20;99.90;;;;;;5007802;28;20039;-79
2023/05/17 02:07:24;;;;;;;4.05;2.17;;;7.30;99.90;;;;;;5009690;28;20474;-78
2023/05/17 02:09:50;;;;;;;11.82;3.58;;;7.30;99.90;;;;;;5025271;28;20040;-78
2023/05/17 02:12:15;;;;;;;10.45;2.65;;;7.30;99.90;;;;;;5007787;28;20037;-78
2023/05/17 02:14:41;;;;;;;9.25;2.92;;;7.20;99.90;;;;;;5022775;28;20021;-78
2023/05/17 02:17:07;;;;;;;4.90;2.22;;;7.40;99.90;;;;;;5007682;28;20436;-78
2023/05/17 02:19:33;;;;;;;7.78;2.30;;;7.40;99.90;;;;;;5008410;28;20067;-78
2023/05/17 02:21:58;;;;;;;5.20;2.83;;;7.30;99.90;;;;;;5009243;28;20053;-78
2023/05/17 02:24:24;;;;;;;8.35;3.13;;;7.10;99.90;;;;;;5023523;28;20413;-78
2023/05/17 02:26:50;;;;;;;6.97;2.63;;;7.30;99.90;;;;;;5023566;28;20033;-78
2023/05/17 02:29:15;;;;;;;9.65;3.50;;;7.20;99.90;;;;;;5008952;28;20033;-79
2023/05/17 02:31:41;;;;;;;6.10;3.47;;;7.10;99.90;;;;;;5041863;28;20133;-78
2023/05/17 02:34:06;;;;;;;7.38;3.10;;;6.80;99.90;;;;;;5007117;28;20045;-78
2023/05/17 02:36:32;;;;;;;6.32;3.05;;;6.60;99.90;;;;;;5007995;28;20029;-78
2023/05/17 02:38:57;;;;;;;8.00;2.58;;;6.60;99.90;;;;;;5006644;28;20568;-78
2023/05/17 02:41:23;;;;;;;12.07;3.63;;;6.80;99.90;;;;;;5024282;28;20052;-78
2023/05/17 02:43:49;;;;;;;6.15;2.70;;;6.90;99.90;;;;;;5023445;28;20036;-78
2023/05/17 02:46:15;;;;;;;5.85;2.72;;;6.80;99.90;;;;;;5007464;28;20076;-78
2023/05/17 02:48:40;;;;;;;8.50;2.70;;;6.60;99.90;;;;;;5009121;28;20396;-78
2023/05/17 02:51:07;;;;;;;8.35;2.97;;;7.00;99.90;;;;;;5005693;28;20135;-78
2023/05/17 02:53:33;;;;;;;8.80;3.88;;;6.80;99.90;;;;;;5016513;28;20124;-79
2023/05/17 02:55:58;;;;;;;12.18;4.03;;;7.00;99.90;;;;;;5007949;28;20112;-78
2023/05/17 02:58:24;;;;;;;5.47;2.78;;;6.90;99.90;;;;;;5022029;28;20056;-78
2023/05/17 03:00:50;;;;;;;12.13;2.83;;;6.90;99.90;;;;;;5004056;28;20377;-79
2023/05/17 03:03:16;;;;;;;11.40;3.75;;;6.70;99.90;;;;;;5005319;28;20041;-79
2023/05/17 03:05:41;;;;;;;9.73;3.35;;;6.40;99.90;;;;;;5023341;28;20116;-79
2023/05/17 03:08:07;;;;;;;14.68;4.25;;;6.40;99.90;;;;;;5005399;28;20518;-79
2023/05/17 03:10:32;;;;;;;9.98;4.97;;;6.60;99.90;;;;;;5007745;28;20032;-79
2023/05/17 03:12:58;;;;;;;6.63;3.42;;;6.50;99.90;;;;;;5023107;28;20045;-79
2023/05/17 03:15:25;;;;;;;11.27;4.68;;;6.60;99.90;;;;;;5034138;28;20407;-79
2023/05/17 03:17:51;;;;;;;10.18;3.72;;;6.60;99.90;;;;;;5006523;28;20127;-79
2023/05/17 03:20:17;;;;;;;8.20;4.55;;;6.50;99.90;;;;;;5022459;28;20485;-79
2023/05/17 03:22:42;;;;;;;11.35;3.63;;;6.60;99.90;;;;;;5020999;28;20053;-79
2023/05/17 03:25:08;;;;;;;9.40;4.55;;;6.60;99.90;;;;;;5005764;28;20540;-79
2023/05/17 03:27:34;;;;;;;8.52;3.58;;;6.50;99.90;;;;;;5023496;28;20061;-79
2023/05/17 03:30:00;;;;;;;5.43;3.97;;;6.60;99.90;;;;;;5006158;28;20115;-79
2023/05/17 03:32:26;;;;;;;10.57;5.35;;;6.70;99.90;;;;;;5020311;28;20032;-79
2023/05/17 03:34:51;;;;;;;16.13;6.25;;;6.40;99.90;;;;;;5004047;28;20036;-79
2023/05/17 03:37:17;;;;;;;12.40;5.13;;;6.40;99.90;;;;;;5023433;28;20119;-79
2023/05/17 03:39:42;;;;;;;12.52;5.28;;;6.90;99.90;;;;;;5009172;28;20025;-79
2023/05/17 03:42:08;;;;;;;10.25;4.47;;;6.40;99.90;;;;;;5007209;28;20045;-79
2023/05/17 03:44:33;;;;;;;14.55;5.95;;;7.00;99.90;;;;;;5026706;28;20083;-79
2023/05/17 03:46:59;;;;;;;8.35;4.32;;;7.00;99.90;;;;;;5043135;28;20032;-79
2023/05/17 03:49:25;;;;;;;9.05;4.47;;;7.10;99.90;;;;;;5009792;28;20056;-79
2023/05/17 03:51:50;;;;;;;4.68;2.85;;;7.20;99.90;;;;;;5041049;28;20017;-78
2023/05/17 03:54:16;;;;;;;7.85;4.35;;;7.20;99.90;;;;;;5044029;28;20519;-78
2023/05/17 03:56:45;;;;;;;9.73;3.33;;;7.30;99.90;;;;;;5010652;28;20396;-79
2023/05/17 03:59:12;;;;;;;13.48;3.95;;;7.50;99.90;;;;;;5009756;28;20052;-79
2023/05/17 04:01:38;;;;;;;7.18;3.35;;;7.50;99.90;;;;;;5023299;28;20029;-79
2023/05/17 04:04:04;;;;;;;8.05;3.20;;;7.40;99.90;;;;;;5022614;28;20618;-79
2023/05/17 04:06:30;;;;;;;13.95;5.38;;;7.50;99.90;;;;;;5011798;28;20036;-79
2023/05/17 04:08:58;;;;;;;13.82;5.97;;;7.50;99.90;;;;;;5008391;28;20033;-79
2023/05/17 04:11:25;;;;;;;14.05;5.93;;;7.30;99.90;;;;;;5026949;28;20037;-79
2023/05/17 04:13:52;;;;;;;15.00;6.95;;;7.30;99.90;;;;;;5025801;28;20040;-79
2023/05/17 04:16:17;;;;;;;18.70;7.45;;;7.70;99.90;;;;;;5040613;28;20550;-79
2023/05/17 04:18:44;;;;;;;16.70;7.20;;;7.40;99.90;;;;;;5026610;28;20040;-78
2023/05/17 04:21:09;;;;;;;15.65;6.53;;;7.90;99.90;;;;;;5025236;28;20041;-78
2023/05/17 04:23:35;;;;;;;18.98;7.72;;;7.10;99.90;;;;;;5009999;28;20033;-78
2023/05/17 04:26:02;;;;;;;22.10;9.20;;;7.50;99.90;;;;;;5043442;28;20033;-77
2023/05/17 04:28:27;;;;;;;21.40;8.55;;;7.60;99.90;;;;;;5007030;28;20033;-79
2023/05/17 04:30:54;;;;;;;9.27;5.55;;;7.60;99.90;;;;;;5008234;28;20029;-78
2023/05/17 04:33:20;;;;;;;24.88;9.50;;;7.70;99.90;;;;;;5007429;28;21039;-79
2023/05/17 04:35:46;;;;;;;18.75;7.55;;;7.70;99.90;;;;;;5006514;28;20048;-77
2023/05/17 04:38:12;;;;;;;30.60;9.32;;;7.90;99.90;;;;;;5037904;28;20436;-79
2023/05/17 04:40:37;;;;;;;22.92;10.23;;;8.00;99.90;;;;;;5009022;28;20405;-79
2023/05/17 04:43:03;;;;;;;26.45;10.57;;;8.00;99.90;;;;;;5026091;28;20032;-78
2023/05/17 04:45:29;;;;;;;26.45;11.10;;;8.00;99.90;;;;;;5018983;28;20450;-79
2023/05/17 04:47:55;;;;;;;24.17;11.25;;;7.90;99.90;;;;;;5025254;28;20687;-78
2023/05/17 04:50:20;;;;;;;28.40;13.23;;;8.00;99.90;;;;;;5024565;28;20032;-78
2023/05/17 04:52:46;;;;;;;35.85;14.20;;;8.00;99.90;;;;;;5008603;28;20507;-78
2023/05/17 04:55:12;;;;;;;33.22;14.07;;;8.00;99.90;;;;;;5023873;28;20036;-78
2023/05/17 04:57:37;;;;;;;38.58;14.85;;;8.00;99.90;;;;;;5026021;28;20052;-79
2023/05/17 05:00:08;;;;;;;45.90;17.02;;;8.20;99.90;;;;;;5038828;28;20037;-80
2023/05/17 05:02:34;;;;;;;44.13;15.75;;;8.40;99.90;;;;;;5022898;28;20029;-79
2023/05/17 05:05:00;;;;;;;41.53;15.20;;;8.60;99.90;;;;;;5004084;28;20447;-79
2023/05/17 05:07:25;;;;;;;28.80;15.02;;;8.80;99.90;;;;;;5002255;28;20090;-78
2023/05/17 05:09:51;;;;;;;38.95;13.82;;;8.90;99.90;;;;;;5021898;28;20029;-79
2023/05/17 05:12:17;;;;;;;26.55;12.02;;;9.10;99.90;;;;;;5039463;28;20036;-79
2023/05/17 05:14:43;;;;;;;24.73;10.40;;;8.90;99.90;;;;;;5007585;28;20037;-79
2023/05/17 05:17:08;;;;;;;26.05;11.10;;;9.00;99.90;;;;;;5023511;28;20045;-78
2023/05/17 05:19:34;;;;;;;19.77;9.10;;;9.50;99.90;;;;;;5025016;28;20064;-77
2023/05/17 05:21:59;;;;;;;26.17;9.35;;;9.40;99.90;;;;;;5022811;28;20029;-77
2023/05/17 05:24:25;;;;;;;22.38;8.60;;;9.80;99.90;;;;;;5008539;28;20075;-79
2023/05/17 05:26:51;;;;;;;21.98;7.85;;;9.90;99.90;;;;;;5024800;28;20060;-79
2023/05/17 05:29:17;;;;;;;24.48;7.95;;;10.10;99.90;;;;;;5019217;28;20497;-78
2023/05/17 05:31:42;;;;;;;28.70;8.32;;;10.10;99.90;;;;;;5005919;28;20571;-77
2023/05/17 05:34:09;;;;;;;17.90;7.55;;;10.30;99.90;;;;;;5040042;28;20083;-77
2023/05/17 05:36:34;;;;;;;17.65;6.75;;;10.50;99.90;;;;;;5022471;28;20029;-77
2023/05/17 05:39:00;;;;;;;16.73;6.20;;;10.60;99.90;;;;;;5007094;28;20477;-77
2023/05/17 05:41:25;;;;;;;21.42;6.38;;;10.80;99.90;;;;;;5008642;28;20032;-77
2023/05/17 05:43:51;;;;;;;20.33;5.38;;;11.00;99.90;;;;;;5039023;28;20029;-77
2023/05/17 05:46:17;;;;;;;14.88;5.57;;;11.20;99.90;;;;;;5024081;28;20029;-77
2023/05/17 05:48:43;;;;;;;22.08;5.82;;;11.50;99.90;;;;;;5022946;28;20032;-77
2023/05/17 05:51:09;;;;;;;16.55;6.32;;;11.70;99.90;;;;;;5024239;28;20477;-77
2023/05/17 05:53:35;;;;;;;17.35;4.93;;;11.70;99.90;;;;;;5023117;28;20716;-77
2023/05/17 05:56:01;;;;;;;20.95;5.50;;;12.10;99.90;;;;;;5009898;28;20033;-77
2023/05/17 05:58:27;;;;;;;18.00;4.78;;;12.20;99.90;;;;;;5023092;28;20291;-78
2023/05/17 06:00:53;;;;;;;19.48;4.78;;;12.40;99.90;;;;;;5020147;28;20060;-76
2023/05/17 06:03:19;;;;;;;12.35;3.88;;;12.50;99.90;;;;;;5002367;28;20054;-77
2023/05/17 06:05:44;;;;;;;13.68;3.63;;;12.40;99.90;;;;;;5019396;28;20077;-77
2023/05/17 06:08:10;;;;;;;18.33;4.88;;;12.60;99.90;;;;;;5038569;28;20128;-77
2023/05/17 06:10:35;;;;;;;14.38;3.97;;;13.30;99.90;;;;;;5039245;28;20103;-77
2023/05/17 06:13:01;;;;;;;23.33;4.43;;;12.90;99.90;;;;;;5022705;28;20056;-77
2023/05/17 06:15:27;;;;;;;14.80;3.80;;;13.10;99.90;;;;;;5005857;28;20044;-77
2023/05/17 06:17:53;;;;;;;12.90;3.13;;;13.10;99.90;;;;;;5023519;28;20544;-78
2023/05/17 06:20:18;;;;;;;13.10;2.80;;;13.20;99.90;;;;;;5008535;28;20149;-78
2023/05/17 06:22:44;;;;;;;8.90;2.70;;;13.40;99.90;;;;;;5023964;28;20095;-77
2023/05/17 06:25:10;;;;;;;15.20;3.08;;;13.40;99.90;;;;;;5021395;28;20102;-78
2023/05/17 06:27:36;;;;;;;15.00;3.60;;;13.70;99.90;;;;;;5019929;28;20116;-76
2023/05/17 06:30:03;;;;;;;11.60;2.55;;;13.80;99.90;;;;;;5036486;28;20029;-76
2023/05/17 06:32:29;;;;;;;13.88;2.63;;;13.70;99.90;;;;;;5025029;28;20040;-77
2023/05/17 06:34:55;;;;;;;14.77;3.00;;;13.90;99.90;;;;;;5041122;28;20056;-76
2023/05/17 06:37:20;;;;;;;15.57;2.72;;;13.90;99.90;;;;;;5024212;28;20098;-76
2023/05/17 06:39:46;;;;;;;16.83;2.28;;;13.80;99.90;;;;;;5006224;28;20029;-77
2023/05/17 06:42:11;;;;;;;15.30;2.85;;;14.20;99.90;;;;;;5000802;28;20116;-76
2023/05/17 06:44:37;;;;;;;15.73;2.78;;;14.10;99.90;;;;;;5024196;28;20120;-75
2023/05/17 06:47:03;;;;;;;18.10;3.05;;;14.20;99.90;;;;;;5023123;28;20048;-76
2023/05/17 06:49:28;;;;;;;14.38;2.92;;;14.40;99.90;;;;;;5024174;28;20052;-76
2023/05/17 06:51:56;;;;;;;15.13;2.80;;;14.50;99.90;;;;;;5022443;28;20489;-76
2023/05/17 06:54:21;;;;;;;17.17;2.80;;;14.80;99.90;;;;;;5008270;28;20492;-76
2023/05/17 06:56:47;;;;;;;11.23;3.05;;;15.10;99.90;;;;;;5021863;28;20033;-77
2023/05/17 06:59:12;;;;;;;20.77;3.30;;;15.30;99.90;;;;;;5019183;28;20778;-77
2023/05/17 07:01:38;;;;;;;16.27;3.22;;;15.40;99.90;;;;;;5008358;28;20083;-76
2023/05/17 07:04:04;;;;;;;12.38;2.20;;;15.70;99.70;;;;;;5035525;28;20041;-76
2023/05/17 07:06:30;;;;;;;11.63;2.80;;;15.90;99.90;;;;;;5039863;28;20116;-76
2023/05/17 07:09:00;;;;;;;13.25;2.88;;;16.00;99.90;;;;;;5001965;28;20037;-77
2023/05/17 07:11:27;;;;;;;10.05;2.70;;;17.10;99.70;;;;;;4998765;28;20425;-76
2023/05/17 07:14:00;;;;;;;9.95;2.60;;;16.70;99.90;;;;;;5014158;28;20040;-76
2023/05/17 07:16:26;;;;;;;13.15;2.83;;;17.30;96.80;;;;;;5022167;28;20090;-77
2023/05/17 07:18:51;;;;;;;15.25;3.42;;;17.90;97.60;;;;;;5008705;28;20497;-76
2023/05/17 07:21:17;;;;;;;8.30;2.60;;;18.00;98.40;;;;;;5025967;28;20029;-77
2023/05/17 07:23:42;;;;;;;10.80;3.08;;;18.20;98.10;;;;;;5024545;28;20029;-76
2023/05/17 07:26:08;;;;;;;8.00;2.80;;;17.90;94.80;;;;;;5030881;28;20370;-76
2023/05/17 07:28:33;;;;;;;12.70;2.55;;;18.10;93.70;;;;;;5010276;28;20064;-76
2023/05/17 07:30:59;;;;;;;9.38;3.22;;;18.00;91.80;;;;;;5010953;28;20144;-76
2023/05/17 07:33:24;;;;;;;10.93;2.30;;;18.10;92.00;;;;;;5027350;28;20039;-76
2023/05/17 07:35:50;;;;;;;8.07;2.88;;;18.30;92.50;;;;;;5009333;28;20036;-77
2023/05/17 07:38:15;;;;;;;12.23;2.60;;;18.20;94.20;;;;;;5011088;28;20038;-76
2023/05/17 07:40:41;;;;;;;8.68;2.30;;;18.50;93.10;;;;;;5010530;28;20073;-76
2023/05/17 07:43:07;;;;;;;13.68;2.83;;;18.60;91.10;;;;;;5024420;28;20422;-76
2023/05/17 07:45:32;;;;;;;14.50;2.65;;;18.80;90.30;;;;;;5026496;28;20086;-76
2023/05/17 07:47:58;;;;;;;8.93;2.40;;;18.70;87.80;;;;;;5010941;28;20456;-76
2023/05/17 07:50:23;;;;;;;11.57;2.30;;;18.80;87.10;;;;;;5025455;28;20435;-76
2023/05/17 07:52:49;;;;;;;11.88;2.47;;;18.80;87.40;;;;;;5023022;28;20029;-78
2023/05/17 07:55:14;;;;;;;6.63;2.10;;;18.50;87.70;;;;;;5041881;28;20059;-78
2023/05/17 07:57:41;;;;;;;13.73;2.55;;;18.60;88.60;;;;;;5026666;28;20033;-76
2023/05/17 08:00:07;;;;;;;9.00;2.58;;;18.30;85.80;;;;;;5010055;28;20037;-76
2023/05/17 08:02:33;;;;;;;10.13;2.63;;;18.20;84.60;;;;;;5028436;28;20208;-77
2023/05/17 08:04:59;;;;;;;12.40;2.85;;;18.00;85.60;;;;;;5026691;28;20102;-78
2023/05/17 08:07:24;;;;;;;10.88;2.03;;;17.80;83.50;;;;;;5044487;28;20028;-78
2023/05/17 08:09:50;;;;;;;9.70;2.70;;;17.70;84.80;;;;;;5024012;28;20503;-78
2023/05/17 08:12:15;;;;;;;12.30;2.63;;;17.90;86.60;;;;;;5026086;28;20052;-78
2023/05/17 08:14:41;;;;;;;11.48;2.65;;;18.10;84.40;;;;;;5011396;28;20483;-78
2023/05/17 08:17:07;;;;;;;8.27;2.40;;;18.30;82.50;;;;;;5042964;28;20411;-78
2023/05/17 08:19:32;;;;;;;7.47;1.67;;;18.70;83.10;;;;;;5045074;28;20044;-77
2023/05/17 08:21:58;;;;;;;6.25;1.83;;;19.10;79.50;;;;;;5025260;28;20112;-77
2023/05/17 08:24:23;;;;;;;7.18;1.45;;;19.20;75.00;;;;;;5010368;28;20033;-78
2023/05/17 08:26:49;;;;;;;6.07;1.85;;;19.20;76.80;;;;;;5020810;28;20064;-79
2023/05/17 08:29:15;;;;;;;12.23;1.77;;;19.10;80.30;;;;;;5026702;28;20033;-78
2023/05/17 08:31:41;;;;;;;8.63;1.73;;;19.40;77.20;;;;;;5027232;28;20037;-78
2023/05/17 08:34:06;;;;;;;8.10;1.38;;;19.70;78.40;;;;;;5027093;28;20473;-79
2023/05/17 08:36:32;;;;;;;5.03;1.58;;;19.90;76.50;;;;;;5009580;28;20516;-77
2023/05/17 08:38:57;;;;;;;9.75;1.75;;;19.70;73.00;;;;;;5045678;28;20482;-78
2023/05/17 08:41:23;;;;;;;10.10;2.13;;;19.60;75.00;;;;;;5026291;28;20029;-78
2023/05/17 08:43:49;;;;;;;10.15;2.17;;;19.60;73.10;;;;;;5026572;28;20028;-78
2023/05/17 08:46:15;;;;;;;12.00;2.25;;;19.50;74.80;;;;;;5009758;28;20057;-78
2023/05/17 08:48:41;;;;;;;8.90;2.55;;;19.50;69.90;;;;;;5010054;28;20033;-77
2023/05/17 08:51:09;;;;;;;8.88;1.90;;;19.50;68.60;;;;;;5023627;28;20032;-78
2023/05/17 08:53:35;;;;;;;5.82;1.75;;;18.90;70.80;;;;;;5010753;28;20513;-78
2023/05/17 08:56:01;;;;;;;8.68;2.15;;;19.40;72.80;;;;;;5025355;28;20045;-78
2023/05/17 08:58:30;;;;;;;13.55;2.72;;;19.70;74.80;;;;;;5024843;28;20033;-77
2023/05/17 09:00:56;;;;;;;6.05;1.70;;;19.50;75.10;;;;;;5025107;28;20037;-77
2023/05/17 09:03:22;;;;;;;10.82;1.85;;;19.30;70.90;;;;;;5027074;28;20481;-78
2023/05/17 09:05:55;;;;;;;6.30;1.83;;;19.50;67.40;;;;;;5042443;28;20715;-77
2023/05/17 09:08:21;;;;;;;6.10;1.80;;;19.40;69.50;;;;;;5011939;28;20037;-78
2023/05/17 09:10:47;;;;;;;11.35;2.00;;;19.40;70.10;;;;;;5008686;28;20040;-78
2023/05/17 09:13:12;;;;;;;7.93;2.03;;;19.50;70.30;;;;;;5009157;28;20597;-78
2023/05/17 09:15:41;;;;;;;10.07;1.75;;;19.30;70.20;;;;;;5009270;28;20124;-77
2023/05/17 09:18:11;;;;;;;5.28;1.90;;;19.10;71.30;;;;;;5022659;28;20060;-78
2023/05/17 09:20:38;;;;;;;9.60;2.00;;;19.20;72.30;;;;;;5036064;28;20037;-79
2023/05/17 09:23:12;;;;;;;9.35;1.85;;;19.70;71.30;;;;;;5026119;28;20457;-78
2023/05/17 09:25:37;;;;;;;7.07;2.05;;;20.10;69.10;;;;;;5041634;28;20247;-78
2023/05/17 09:28:10;;;;;;;10.40;1.73;;;20.30;69.90;;;;;;5025414;28;20115;-78
2023/05/17 09:30:37;;;;;;;7.13;1.52;;;20.60;68.40;;;;;;5026075;28;20036;-78
2023/05/17 09:33:06;;;;;;;9.77;2.65;;;21.00;71.20;;;;;;5026749;28;20032;-78
2023/05/17 09:35:32;;;;;;;6.35;1.50;;;21.30;70.10;;;;;;5041304;28;20564;-78
2023/05/17 09:38:07;;;;;;;9.27;1.88;;;21.20;71.00;;;;;;5006603;28;20034;-78
2023/05/17 09:40:36;;;;;;;5.80;1.65;;;21.30;71.70;;;;;;5043524;28;20037;-78
2023/05/17 09:43:02;;;;;;;8.60;2.25;;;21.50;66.60;;;;;;5025556;28;20126;-78
2023/05/17 09:45:27;;;;;;;10.73;2.90;;;21.40;63.70;;;;;;5009600;28;20123;-79
2023/05/17 09:47:53;;;;;;;7.10;2.00;;;21.10;60.50;;;;;;5016527;28;20045;-78
2023/05/17 09:50:19;;;;;;;10.88;2.00;;;21.20;63.50;;;;;;5026627;28;20047;-78
2023/05/17 09:52:45;;;;;;;9.43;1.95;;;21.30;61.10;;;;;;5025544;28;20033;-78
2023/05/17 09:55:10;;;;;;;8.77;2.60;;;21.10;64.10;;;;;;5007279;28;20041;-77
2023/05/17 09:57:37;;;;;;;11.10;1.95;;;21.20;64.50;;;;;;5008619;28;20075;-77
2023/05/17 10:00:06;;;;;;;10.57;2.63;;;21.40;64.50;;;;;;5026603;28;20033;-77
2023/05/17 10:02:32;;;;;;;7.63;2.63;;;21.60;65.30;;;;;;5009418;28;20514;-78
2023/05/17 10:04:58;;;;;;;8.30;1.98;;;22.00;61.40;;;;;;5005811;28;20052;-77
2023/05/17 10:07:24;;;;;;;9.88;2.58;;;22.00;61.30;;;;;;5022899;28;20033;-77
2023/05/17 10:09:50;;;;;;;8.30;2.03;;;22.10;61.50;;;;;;5041631;28;20029;-78
2023/05/17 10:12:17;;;;;;;9.05;1.90;;;22.00;58.70;;;;;;5008106;28;20041;-77
2023/05/17 10:14:43;;;;;;;8.88;2.38;;;21.80;59.80;;;;;;5026784;28;20029;-78
2023/05/17 10:17:10;;;;;;;9.00;2.08;;;21.80;61.00;;;;;;5022562;28;20153;-77
2023/05/17 10:19:36;;;;;;;10.18;2.30;;;21.80;60.10;;;;;;5010365;28;20040;-78
2023/05/17 10:22:02;;;;;;;22.92;3.53;;;21.90;58.90;;;;;;5024170;28;20538;-78
2023/05/17 10:24:29;;;;;;;7.70;2.75;;;21.50;59.80;;;;;;5008239;28;20106;-78
2023/05/17 10:26:55;;;;;;;16.67;2.65;;;21.60;62.20;;;;;;5006951;28;20029;-77
2023/05/17 10:29:21;;;;;;;11.02;2.22;;;22.00;61.40;;;;;;5024879;28;20505;-77
2023/05/17 10:31:46;;;;;;;6.78;2.13;;;22.30;61.20;;;;;;5004930;28;20121;-77
2023/05/17 10:34:12;;;;;;;13.93;2.25;;;22.40;58.60;;;;;;5007617;28;20032;-77
2023/05/17 10:36:38;;;;;;;6.60;2.13;;;22.80;58.50;;;;;;5008185;28;20037;-77
2023/05/17 10:39:06;;;;;;;10.52;2.35;;;22.80;61.50;;;;;;5021598;28;20032;-78
2023/05/17 10:41:33;;;;;;;6.90;1.70;;;23.20;58.50;;;;;;5024851;28;20041;-79
2023/05/17 10:43:58;;;;;;;7.47;1.88;;;23.60;57.00;;;;;;5014349;28;20112;-78
2023/05/17 10:46:24;;;;;;;6.28;1.92;;;23.50;56.00;;;;;;5035367;28;20117;-78
2023/05/17 10:48:50;;;;;;;10.25;2.42;;;23.60;57.60;;;;;;5027000;28;20629;-78
2023/05/17 10:51:23;;;;;;;10.43;2.50;;;23.90;55.40;;;;;;5012136;28;20080;-77
2023/05/17 10:54:10;;;;;;;5.03;1.48;;;23.40;55.00;;;;;;5010657;28;20511;-76
2023/05/17 10:56:47;;;;;;;8.60;1.92;;;23.20;55.10;;;;;;5044473;28;20044;-76
2023/05/17 10:59:17;;;;;;;7.38;2.45;;;23.20;56.40;;;;;;5025737;28;20033;-76
2023/05/17 11:01:55;;;;;;;9.30;2.15;;;23.30;55.80;;;;;;5041859;28;20163;-76
2023/05/17 11:04:35;;;;;;;10.75;2.08;;;23.60;53.70;;;;;;5044152;28;20029;-76
2023/05/17 11:07:20;;;;;;;8.57;1.80;;;23.60;56.20;;;;;;5009633;28;20481;-76
2023/05/17 11:09:59;;;;;;;6.65;1.55;;;23.50;53.70;;;;;;5043991;28;20032;-77
2023/05/17 11:12:36;;;;;;;6.90;1.40;;;23.00;57.70;;;;;;5027504;28;20057;-77
2023/05/17 11:15:15;;;;;;;7.10;2.10;;;23.50;54.50;;;;;;5042920;28;20048;-76
2023/05/17 11:17:45;;;;;;;7.60;1.70;;;23.60;51.00;;;;;;5042415;28;20025;-76
2023/05/17 11:20:13;;;;;;;6.47;1.90;;;23.60;51.80;;;;;;5045612;28;20025;-76
2023/05/17 11:22:48;;;;;;;4.97;1.52;;;23.50;53.30;;;;;;5044936;28;20033;-76
2023/05/17 11:25:14;;;;;;;5.90;1.58;;;23.70;54.40;;;;;;5040960;28;20104;-76
2023/05/17 11:27:44;;;;;;;8.43;1.90;;;24.10;56.40;;;;;;5025069;28;20168;-76
2023/05/17 11:30:29;;;;;;;7.60;2.28;;;24.20;54.00;;;;;;5037073;28;20796;-76
2023/05/17 11:33:04;;;;;;;7.13;2.47;;;24.30;54.20;;;;;;5039681;28;20021;-77
2023/05/17 11:35:35;;;;;;;3.20;1.10;;;24.20;52.10;;;;;;5040193;28;20460;-76
2023/05/17 11:38:17;;;;;;;8.65;2.05;;;24.10;52.60;;;;;;5010007;28;20123;-76
2023/05/17 11:40:44;;;;;;;7.32;1.48;;;24.40;51.00;;;;;;5024760;28;20509;-76
2023/05/17 11:43:14;;;;;;;7.35;2.08;;;24.00;51.70;;;;;;5023735;28;20037;-76
2023/05/17 11:45:47;;;;;;;7.15;1.85;;;24.20;48.40;;;;;;5025421;28;20554;-76
2023/05/17 11:48:13;;;;;;;3.92;1.70;;;24.20;49.30;;;;;;5043537;28;20021;-77
2023/05/17 11:50:39;;;;;;;4.00;1.50;;;24.20;51.80;;;;;;5043635;28;20033;-77
2023/05/17 11:53:06;;;;;;;7.05;1.80;;;24.30;53.30;;;;;;5021266;28;20371;-77
2023/05/17 11:55:33;;;;;;;8.82;2.05;;;24.60;48.10;;;;;;5011598;28;20167;-77
2023/05/17 11:57:59;;;;;;;7.65;1.90;;;24.60;48.70;;;;;;5041403;28;20025;-77
2023/05/17 12:00:26;;;;;;;11.88;1.98;;;24.40;48.70;;;;;;5025615;28;20496;-77
2023/05/17 12:02:51;;;;;;;5.05;1.40;;;24.30;50.80;;;;;;5026538;28;20661;-78
2023/05/17 12:05:20;;;;;;;5.22;1.38;;;24.40;50.90;;;;;;5021566;28;20024;-78
2023/05/17 12:07:46;;;;;;;14.60;2.17;;;24.20;49.40;;;;;;5010174;28;20548;-78
2023/05/17 12:10:12;;;;;;;6.15;2.25;;;24.20;47.90;;;;;;5025659;28;20029;-77
2023/05/17 12:12:38;;;;;;;9.57;2.33;;;24.10;49.30;;;;;;5042479;28;20457;-77
2023/05/17 12:15:04;;;;;;;6.45;1.75;;;23.90;49.60;;;;;;5025953;28;20025;-78
2023/05/17 12:17:32;;;;;;;9.00;2.15;;;24.20;50.80;;;;;;5011032;28;20067;-77
2023/05/17 12:20:08;;;;;;;5.45;1.90;;;24.40;51.60;;;;;;5009998;28;20108;-82
2023/05/17 12:22:34;;;;;;;9.20;2.38;;;24.90;51.20;;;;;;5042188;28;20028;-82
2023/05/17 12:24:59;;;;;;;6.03;2.08;;;25.20;48.40;;;;;;5011329;28;20036;-81
2023/05/17 12:27:26;;;;;;;7.78;1.90;;;25.20;49.20;;;;;;5027813;28;20381;-81
2023/05/17 12:29:52;;;;;;;8.10;2.08;;;25.00;46.80;;;;;;5027466;28;20602;-80
2023/05/17 12:32:17;;;;;;;6.88;2.03;;;24.90;47.40;;;;;;5008268;28;20029;-80
2023/05/17 12:34:43;;;;;;;8.15;1.98;;;24.70;49.10;;;;;;5012559;28;20090;-82
2023/05/17 12:37:09;;;;;;;4.97;2.30;;;24.30;47.80;;;;;;5027891;28;20652;-82
2023/05/17 12:39:35;;;;;;;5.57;1.98;;;24.20;47.80;;;;;;5012266;28;20040;-81
2023/05/17 12:42:00;;;;;;;7.07;2.88;;;24.00;48.00;;;;;;5042970;28;20037;-81
2023/05/17 12:44:26;;;;;;;6.57;1.92;;;24.40;47.90;;;;;;5027674;28;20058;-81